sensor_id;sensor_type;location;lat;lon;timestamp;pressure;altitude;pressure_sealevel;temperature;humidity
6942;BME280;3510;43.200;27.920;2024-03-23T00:55:41;101527.94;;;24.54;40.07
6942;BME280;3510;43.200;27.920;2024-03-23T00:58:08;101525.34;;;24.54;40.11
6942;BME280;3510;43.200;27.920;2024-03-23T01:00:34;101530.34;;;24.50;40.35
6942;BME280;3510;43.200;27.920;2024-03-23T01:03:01;101526.13;;;24.52;40.41
6942;BME280;3510;43.200;27.920;2024-03-23T01:05:26;101527.88;;;24.53;40.47
6942;BME280;3510;43.200;27.920;2024-03-23T01:07:53;101526.88;;;24.49;40.14
6942;BME280;3510;43.200;27.920;2024-03-23T01:10:20;101525.19;;;24.50;40.46
6942;BME280;3510;43.200;27.920;2024-03-23T01:12:47;101533.47;;;24.43;40.56
6942;BME280;3510;43.200;27.920;2024-03-23T01:15:13;101520.72;;;24.46;40.52
6942;BME280;3510;43.200;27.920;2024-03-23T01:17:40;101525.00;;;24.45;40.32
6942;BME280;3510;43.200;27.920;2024-03-23T01:20:06;101520.78;;;24.47;40.24
6942;BME280;3510;43.200;27.920;2024-03-23T01:22:33;101520.00;;;24.48;40.33
6942;BME280;3510;43.200;27.920;2024-03-23T01:24:59;101512.28;;;24.48;40.18
6942;BME280;3510;43.200;27.920;2024-03-23T01:27:27;101511.19;;;24.43;40.34
6942;BME280;3510;43.200;27.920;2024-03-23T01:29:53;101514.59;;;24.42;40.03
6942;BME280;3510;43.200;27.920;2024-03-23T01:32:20;101507.63;;;24.39;39.83
6942;BME280;3510;43.200;27.920;2024-03-23T01:34:47;101507.63;;;24.39;40.05
6942;BME280;3510;43.200;27.920;2024-03-23T01:37:13;101505.03;;;24.39;39.94
6942;BME280;3510;43.200;27.920;2024-03-23T01:39:39;101505.13;;;24.41;39.97
6942;BME280;3510;43.200;27.920;2024-03-23T01:42:06;101507.50;;;24.36;40.08
6942;BME280;3510;43.200;27.920;2024-03-23T01:44:33;101516.28;;;24.42;39.86
6942;BME280;3510;43.200;27.920;2024-03-23T01:47:00;101521.41;;;24.40;39.82
6942;BME280;3510;43.200;27.920;2024-03-23T01:49:26;101519.41;;;24.34;39.91
6942;BME280;3510;43.200;27.920;2024-03-23T01:51:53;101518.44;;;24.32;40.21
6942;BME280;3510;43.200;27.920;2024-03-23T01:54:20;101517.72;;;24.35;40.15
6942;BME280;3510;43.200;27.920;2024-03-23T01:56:47;101504.78;;;24.33;40.19
6942;BME280;3510;43.200;27.920;2024-03-23T01:59:14;101500.56;;;24.35;40.17
6942;BME280;3510;43.200;27.920;2024-03-23T02:01:41;101502.28;;;24.35;39.88
6942;BME280;3510;43.200;27.920;2024-03-23T02:04:08;101506.41;;;24.31;39.57
6942;BME280;3510;43.200;27.920;2024-03-23T02:06:35;101504.66;;;24.30;39.78
6942;BME280;3510;43.200;27.920;2024-03-23T02:09:02;101500.44;;;24.32;39.96
6942;BME280;3510;43.200;27.920;2024-03-23T02:11:29;101509.00;;;24.31;40.00
6942;BME280;3510;43.200;27.920;2024-03-23T02:13:56;101507.19;;;24.29;39.75
6942;BME280;3510;43.200;27.920;2024-03-23T02:16:21;101505.38;;;24.26;40.12
6942;BME280;3510;43.200;27.920;2024-03-23T02:18:50;101515.69;;;24.28;39.88
6942;BME280;3510;43.200;27.920;2024-03-23T02:21:15;101507.94;;;24.26;39.73
6942;BME280;3510;43.200;27.920;2024-03-23T02:23:44;101510.25;;;24.20;39.75
6942;BME280;3510;43.200;27.920;2024-03-23T02:26:09;101512.91;;;24.22;39.78
6942;BME280;3510;43.200;27.920;2024-03-23T02:28:36;101504.38;;;24.23;39.59
6942;BME280;3510;43.200;27.920;2024-03-23T02:31:02;101506.06;;;24.22;40.05
6942;BME280;3510;43.200;27.920;2024-03-23T02:33:30;101504.38;;;24.23;39.72
6942;BME280;3510;43.200;27.920;2024-03-23T02:35:56;101508.56;;;24.21;39.68
6942;BME280;3510;43.200;27.920;2024-03-23T02:38:23;101505.81;;;24.16;40.14
6942;BME280;3510;43.200;27.920;2024-03-23T02:40:51;101511.97;;;24.20;39.75
6942;BME280;3510;43.200;27.920;2024-03-23T02:43:17;101510.22;;;24.19;39.94
6942;BME280;3510;43.200;27.920;2024-03-23T02:45:43;101506.69;;;24.17;39.95
6942;BME280;3510;43.200;27.920;2024-03-23T02:48:10;101512.66;;;24.15;39.57
6942;BME280;3510;43.200;27.920;2024-03-23T02:50:36;101507.56;;;24.17;39.76
6942;BME280;3510;43.200;27.920;2024-03-23T02:53:03;101511.09;;;24.19;40.06
6942;BME280;3510;43.200;27.920;2024-03-23T02:55:29;101506.63;;;24.15;39.69
6942;BME280;3510;43.200;27.920;2024-03-23T02:57:57;101507.56;;;24.17;39.55
6942;BME280;3510;43.200;27.920;2024-03-23T03:00:27;101502.22;;;24.12;39.80
6942;BME280;3510;43.200;27.920;2024-03-23T03:02:54;101502.09;;;24.09;39.90
6942;BME280;3510;43.200;27.920;2024-03-23T03:05:20;101495.22;;;24.08;39.92
6942;BME280;3510;43.200;27.920;2024-03-23T03:07:47;101493.59;;;24.10;39.94
6942;BME280;3510;43.200;27.920;2024-03-23T03:10:12;101485.94;;;24.12;39.61
6942;BME280;3510;43.200;27.920;2024-03-23T03:12:39;101488.47;;;24.10;39.63
6942;BME280;3510;43.200;27.920;2024-03-23T03:15:07;101485.81;;;24.09;39.62
6942;BME280;3510;43.200;27.920;2024-03-23T03:17:34;101481.47;;;24.08;39.86
6942;BME280;3510;43.200;27.920;2024-03-23T03:20:00;101486.53;;;24.06;39.85
6942;BME280;3510;43.200;27.920;2024-03-23T03:22:30;101486.53;;;24.06;39.58
6942;BME280;3510;43.200;27.920;2024-03-23T03:24:55;101479.66;;;24.05;39.92
6942;BME280;3510;43.200;27.920;2024-03-23T03:27:22;101484.63;;;24.01;39.94
6942;BME280;3510;43.200;27.920;2024-03-23T03:29:48;101485.53;;;24.03;39.63
6942;BME280;3510;43.200;27.920;2024-03-23T03:32:16;101479.44;;;23.99;39.59
6942;BME280;3510;43.200;27.920;2024-03-23T03:34:42;101486.16;;;23.96;39.77
6942;BME280;3510;43.200;27.920;2024-03-23T03:37:09;101486.16;;;23.96;39.95
6942;BME280;3510;43.200;27.920;2024-03-23T03:39:35;101484.38;;;23.95;39.89
6942;BME280;3510;43.200;27.920;2024-03-23T03:42:02;101483.66;;;23.99;39.76
6942;BME280;3510;43.200;27.920;2024-03-23T03:44:32;101481.09;;;23.99;39.80
6942;BME280;3510;43.200;27.920;2024-03-23T03:46:58;101480.09;;;23.95;39.97
6942;BME280;3510;43.200;27.920;2024-03-23T03:49:26;101489.38;;;23.91;39.70
6942;BME280;3510;43.200;27.920;2024-03-23T03:51:52;101491.28;;;23.96;39.73
6942;BME280;3510;43.200;27.920;2024-03-23T03:54:18;101488.75;;;23.97;39.64
6942;BME280;3510;43.200;27.920;2024-03-23T03:56:45;101486.16;;;23.96;39.55
6942;BME280;3510;43.200;27.920;2024-03-23T03:59:11;101495.53;;;23.95;39.48
6942;BME280;3510;43.200;27.920;2024-03-23T04:01:38;101497.09;;;23.91;39.55
6942;BME280;3510;43.200;27.920;2024-03-23T04:04:03;101488.47;;;23.89;39.56
6942;BME280;3510;43.200;27.920;2024-03-23T04:06:34;101490.19;;;23.90;39.48
6942;BME280;3510;43.200;27.920;2024-03-23T04:09:00;101497.91;;;23.90;39.99
6942;BME280;3510;43.200;27.920;2024-03-23T04:11:27;101494.72;;;23.96;39.57
6942;BME280;3510;43.200;27.920;2024-03-23T04:13:53;101501.19;;;23.86;39.83
6942;BME280;3510;43.200;27.920;2024-03-23T04:16:31;101500.03;;;23.80;39.79
6942;BME280;3510;43.200;27.920;2024-03-23T04:18:58;101501.56;;;23.75;40.01
6942;BME280;3510;43.200;27.920;2024-03-23T04:21:24;101503.56;;;23.82;39.89
6942;BME280;3510;43.200;27.920;2024-03-23T04:23:52;101504.72;;;23.88;39.73
6942;BME280;3510;43.200;27.920;2024-03-23T04:26:18;101498.78;;;23.91;39.77
6942;BME280;3510;43.200;27.920;2024-03-23T04:28:44;101505.88;;;23.97;39.43
6942;BME280;3510;43.200;27.920;2024-03-23T04:31:11;101501.66;;;23.99;39.12
6942;BME280;3510;43.200;27.920;2024-03-23T04:33:37;101505.47;;;24.07;39.22
6942;BME280;3510;43.200;27.920;2024-03-23T04:36:04;101504.50;;;24.05;39.47
6942;BME280;3510;43.200;27.920;2024-03-23T04:38:30;101503.53;;;24.03;39.23
6942;BME280;3510;43.200;27.920;2024-03-23T04:40:59;101508.81;;;24.06;39.17
6942;BME280;3510;43.200;27.920;2024-03-23T04:43:27;101516.50;;;24.04;39.18
6942;BME280;3510;43.200;27.920;2024-03-23T04:45:54;101515.41;;;24.20;38.93
6942;BME280;3510;43.200;27.920;2024-03-23T04:48:21;101514.56;;;24.21;38.92
6942;BME280;3510;43.200;27.920;2024-03-23T04:50:48;101511.09;;;24.19;38.99
6942;BME280;3510;43.200;27.920;2024-03-23T04:53:14;101514.53;;;24.20;39.10
6942;BME280;3510;43.200;27.920;2024-03-23T04:55:42;101511.53;;;24.09;38.96
6942;BME280;3510;43.200;27.920;2024-03-23T04:58:10;101509.69;;;24.06;39.29
6942;BME280;3510;43.200;27.920;2024-03-23T05:00:36;101509.94;;;24.12;39.09
6942;BME280;3510;43.200;27.920;2024-03-23T05:03:03;101501.53;;;24.17;38.87
6942;BME280;3510;43.200;27.920;2024-03-23T05:05:30;101508.63;;;24.22;39.28
6942;BME280;3510;43.200;27.920;2024-03-23T05:07:59;101505.97;;;24.21;39.31
6942;BME280;3510;43.200;27.920;2024-03-23T05:10:25;101505.41;;;24.28;39.12
6942;BME280;3510;43.200;27.920;2024-03-23T05:12:51;101505.72;;;24.35;38.89
6942;BME280;3510;43.200;27.920;2024-03-23T05:15:25;101501.03;;;24.46;38.98
6942;BME280;3510;43.200;27.920;2024-03-23T05:17:51;101505.53;;;24.31;39.06
6942;BME280;3510;43.200;27.920;2024-03-23T05:20:18;101504.91;;;24.36;38.69
6942;BME280;3510;43.200;27.920;2024-03-23T05:22:44;101498.13;;;24.38;38.94
6942;BME280;3510;43.200;27.920;2024-03-23T05:25:11;101501.81;;;24.44;38.81
6942;BME280;3510;43.200;27.920;2024-03-23T05:27:37;101500.44;;;24.53;38.26
6942;BME280;3510;43.200;27.920;2024-03-23T05:30:05;101498.94;;;24.58;38.66
6942;BME280;3510;43.200;27.920;2024-03-23T05:32:33;101497.13;;;24.56;38.25
6942;BME280;3510;43.200;27.920;2024-03-23T05:35:00;101501.56;;;24.60;38.00
6942;BME280;3510;43.200;27.920;2024-03-23T05:37:25;101500.72;;;24.61;38.06
6942;BME280;3510;43.200;27.920;2024-03-23T05:39:52;101501.91;;;24.69;37.71
6942;BME280;3510;43.200;27.920;2024-03-23T05:42:19;101504.53;;;24.71;38.05
6942;BME280;3510;43.200;27.920;2024-03-23T05:44:46;101501.97;;;24.71;37.79
6942;BME280;3510;43.200;27.920;2024-03-23T05:47:12;101495.16;;;24.73;37.86
6942;BME280;3510;43.200;27.920;2024-03-23T05:49:41;101494.44;;;24.77;37.43
6942;BME280;3510;43.200;27.920;2024-03-23T05:52:07;101493.53;;;24.75;37.30
6942;BME280;3510;43.200;27.920;2024-03-23T05:54:34;101503.66;;;24.70;37.40
6942;BME280;3510;43.200;27.920;2024-03-23T05:57:00;101496.00;;;24.72;37.64
6942;BME280;3510;43.200;27.920;2024-03-23T05:59:27;101500.50;;;24.77;37.52
6942;BME280;3510;43.200;27.920;2024-03-23T06:01:52;101491.25;;;24.82;37.26
6942;BME280;3510;43.200;27.920;2024-03-23T06:04:19;101496.28;;;24.79;37.11
6942;BME280;3510;43.200;27.920;2024-03-23T06:06:48;101498.22;;;24.85;37.15
6942;BME280;3510;43.200;27.920;2024-03-23T06:09:14;101489.69;;;24.87;37.02
6942;BME280;3510;43.200;27.920;2024-03-23T06:11:40;101484.66;;;24.91;36.77
6942;BME280;3510;43.200;27.920;2024-03-23T06:14:07;101490.69;;;24.91;36.64
6942;BME280;3510;43.200;27.920;2024-03-23T06:16:33;101481.19;;;24.89;37.15
6942;BME280;3510;43.200;27.920;2024-03-23T06:19:00;101480.63;;;24.97;36.87
6942;BME280;3510;43.200;27.920;2024-03-23T06:21:29;101471.06;;;24.95;36.71
6942;BME280;3510;43.200;27.920;2024-03-23T06:23:57;101474.72;;;25.00;36.72
6942;BME280;3510;43.200;27.920;2024-03-23T06:26:23;101477.22;;;24.98;36.80
6942;BME280;3510;43.200;27.920;2024-03-23T06:28:49;101477.28;;;25.00;36.78
6942;BME280;3510;43.200;27.920;2024-03-23T06:31:15;101474.81;;;25.03;36.82
6942;BME280;3510;43.200;27.920;2024-03-23T06:33:42;101468.69;;;24.99;36.50
6942;BME280;3510;43.200;27.920;2024-03-23T06:36:09;101473.06;;;25.02;36.50
6942;BME280;3510;43.200;27.920;2024-03-23T06:38:36;101472.13;;;25.00;36.39
6942;BME280;3510;43.200;27.920;2024-03-23T06:41:05;101472.19;;;25.01;36.77
6942;BME280;3510;43.200;27.920;2024-03-23T06:43:34;101474.81;;;25.03;36.64
6942;BME280;3510;43.200;27.920;2024-03-23T06:45:59;101476.69;;;25.07;36.14
6942;BME280;3510;43.200;27.920;2024-03-23T06:48:26;101479.19;;;25.05;36.23
6942;BME280;3510;43.200;27.920;2024-03-23T06:50:55;101476.69;;;25.07;36.45
6942;BME280;3510;43.200;27.920;2024-03-23T06:53:22;101480.19;;;25.09;36.19
6942;BME280;3510;43.200;27.920;2024-03-23T06:55:50;101476.13;;;25.14;36.21
6942;BME280;3510;43.200;27.920;2024-03-23T06:58:19;101481.97;;;25.10;36.36
6942;BME280;3510;43.200;27.920;2024-03-23T07:00:45;101475.19;;;25.12;36.04
6942;BME280;3510;43.200;27.920;2024-03-23T07:03:12;101472.84;;;25.18;36.10
6942;BME280;3510;43.200;27.920;2024-03-23T07:05:38;101469.25;;;25.15;36.09
6942;BME280;3510;43.200;27.920;2024-03-23T07:08:05;101466.00;;;25.20;36.30
6942;BME280;3510;43.200;27.920;2024-03-23T07:10:31;101470.25;;;25.18;36.07
6942;BME280;3510;43.200;27.920;2024-03-23T07:12:57;101463.28;;;25.16;36.35
6942;BME280;3510;43.200;27.920;2024-03-23T07:15:27;101464.19;;;25.18;36.24
6942;BME280;3510;43.200;27.920;2024-03-23T07:17:54;101468.47;;;25.17;36.31
6942;BME280;3510;43.200;27.920;2024-03-23T07:20:20;101459.00;;;25.16;36.61
6942;BME280;3510;43.200;27.920;2024-03-23T07:22:47;101458.28;;;25.20;36.16
6942;BME280;3510;43.200;27.920;2024-03-23T07:25:12;101465.91;;;25.17;36.58
6942;BME280;3510;43.200;27.920;2024-03-23T07:27:39;101459.03;;;25.18;36.54
6942;BME280;3510;43.200;27.920;2024-03-23T07:30:06;101458.16;;;25.17;36.07
6942;BME280;3510;43.200;27.920;2024-03-23T07:32:35;101454.69;;;25.15;36.30
6942;BME280;3510;43.200;27.920;2024-03-23T07:35:01;101454.00;;;25.21;36.39
6942;BME280;3510;43.200;27.920;2024-03-23T07:37:28;101451.22;;;25.15;36.27
6942;BME280;3510;43.200;27.920;2024-03-23T07:39:54;101440.97;;;25.16;36.76
6942;BME280;3510;43.200;27.920;2024-03-23T07:42:21;101448.84;;;25.21;36.40
6942;BME280;3510;43.200;27.920;2024-03-23T07:44:46;101450.63;;;25.22;36.12
6942;BME280;3510;43.200;27.920;2024-03-23T07:47:13;101441.31;;;25.25;36.52
6942;BME280;3510;43.200;27.920;2024-03-23T07:49:40;101447.13;;;25.21;36.43
6942;BME280;3510;43.200;27.920;2024-03-23T07:52:07;101448.09;;;25.23;36.57
6942;BME280;3510;43.200;27.920;2024-03-23T07:54:33;101444.91;;;25.30;36.43
6942;BME280;3510;43.200;27.920;2024-03-23T07:57:00;101448.38;;;25.32;36.38
6942;BME280;3510;43.200;27.920;2024-03-23T07:59:26;101443.03;;;25.26;36.47
6942;BME280;3510;43.200;27.920;2024-03-23T08:01:53;101439.34;;;25.18;36.55
6942;BME280;3510;43.200;27.920;2024-03-23T08:04:20;101443.03;;;25.26;36.33
6942;BME280;3510;43.200;27.920;2024-03-23T08:06:48;101437.88;;;25.26;36.70
6942;BME280;3510;43.200;27.920;2024-03-23T08:09:14;101437.78;;;25.23;36.80
6942;BME280;3510;43.200;27.920;2024-03-23T08:11:41;101431.91;;;25.27;36.65
6942;BME280;3510;43.200;27.920;2024-03-23T08:14:09;101435.25;;;25.25;36.36
6942;BME280;3510;43.200;27.920;2024-03-23T08:16:36;101431.91;;;25.27;36.82
6942;BME280;3510;43.200;27.920;2024-03-23T08:19:01;101433.56;;;25.25;36.57
6942;BME280;3510;43.200;27.920;2024-03-23T08:21:29;101427.69;;;25.29;36.78
6942;BME280;3510;43.200;27.920;2024-03-23T08:23:56;101428.69;;;25.33;36.31
6942;BME280;3510;43.200;27.920;2024-03-23T08:26:23;101428.69;;;25.33;36.51
6942;BME280;3510;43.200;27.920;2024-03-23T08:28:49;101417.56;;;25.35;36.76
6942;BME280;3510;43.200;27.920;2024-03-23T08:31:15;101421.13;;;25.39;36.48
6942;BME280;3510;43.200;27.920;2024-03-23T08:33:41;101421.03;;;25.36;36.37
6942;BME280;3510;43.200;27.920;2024-03-23T08:36:10;101415.16;;;25.40;36.86
6942;BME280;3510;43.200;27.920;2024-03-23T08:38:38;101413.34;;;25.38;36.47
6942;BME280;3510;43.200;27.920;2024-03-23T08:41:07;101408.97;;;25.35;36.53
6942;BME280;3510;43.200;27.920;2024-03-23T08:43:35;101407.38;;;25.39;36.51
6942;BME280;3510;43.200;27.920;2024-03-23T08:46:06;101409.19;;;25.41;36.75
6942;BME280;3510;43.200;27.920;2024-03-23T08:48:32;101404.91;;;25.42;37.16
6942;BME280;3510;43.200;27.920;2024-03-23T08:51:00;101403.91;;;25.13;36.51
6942;BME280;3510;43.200;27.920;2024-03-23T08:53:27;101405.53;;;24.86;37.17
6942;BME280;3510;43.200;27.920;2024-03-23T08:55:54;101399.28;;;24.80;37.12
6942;BME280;3510;43.200;27.920;2024-03-23T08:58:23;101398.31;;;24.76;36.92
6942;BME280;3510;43.200;27.920;2024-03-23T09:00:50;101392.69;;;24.62;36.91
6942;BME280;3510;43.200;27.920;2024-03-23T09:03:17;101397.06;;;24.89;37.09
6942;BME280;3510;43.200;27.920;2024-03-23T09:05:44;101393.03;;;25.21;36.70
6942;BME280;3510;43.200;27.920;2024-03-23T09:08:10;101387.47;;;25.34;36.05
6942;BME280;3510;43.200;27.920;2024-03-23T09:10:38;101389.31;;;25.39;36.56
6942;BME280;3510;43.200;27.920;2024-03-23T09:13:04;101392.84;;;25.41;36.04
6942;BME280;3510;43.200;27.920;2024-03-23T09:15:34;101385.97;;;25.41;36.18
6942;BME280;3510;43.200;27.920;2024-03-23T09:17:59;101381.69;;;25.42;36.61
6942;BME280;3510;43.200;27.920;2024-03-23T09:20:26;101379.09;;;25.40;36.29
6942;BME280;3510;43.200;27.920;2024-03-23T09:22:52;101381.66;;;25.40;36.40
6942;BME280;3510;43.200;27.920;2024-03-23T09:25:19;101374.06;;;25.45;36.29
6942;BME280;3510;43.200;27.920;2024-03-23T09:27:46;101378.41;;;25.46;36.83
6942;BME280;3510;43.200;27.920;2024-03-23T09:30:13;101368.09;;;25.46;36.92
6942;BME280;3510;43.200;27.920;2024-03-23T09:32:42;101376.03;;;25.52;36.75
6942;BME280;3510;43.200;27.920;2024-03-23T09:35:09;101369.09;;;25.51;36.61
6942;BME280;3510;43.200;27.920;2024-03-23T09:37:37;101364.88;;;25.53;36.61
6942;BME280;3510;43.200;27.920;2024-03-23T09:40:06;101354.53;;;25.51;36.60
6942;BME280;3510;43.200;27.920;2024-03-23T09:42:34;101350.28;;;25.53;36.92
6942;BME280;3510;43.200;27.920;2024-03-23T09:45:01;101349.50;;;25.56;36.78
6942;BME280;3510;43.200;27.920;2024-03-23T09:47:31;101347.66;;;25.52;36.91
6942;BME280;3510;43.200;27.920;2024-03-23T09:50:01;101345.09;;;25.52;37.17
6942;BME280;3510;43.200;27.920;2024-03-23T09:52:27;101339.06;;;25.51;36.75
6942;BME280;3510;43.200;27.920;2024-03-23T09:54:54;101337.25;;;25.49;37.27
6942;BME280;3510;43.200;27.920;2024-03-23T09:57:19;101333.91;;;25.51;36.83
6942;BME280;3510;43.200;27.920;2024-03-23T09:59:46;101330.50;;;25.52;36.81
6942;BME280;3510;43.200;27.920;2024-03-23T10:02:12;101329.66;;;25.53;36.96
6942;BME280;3510;43.200;27.920;2024-03-23T10:04:42;101334.88;;;25.55;36.78
6942;BME280;3510;43.200;27.920;2024-03-23T10:07:14;101335.78;;;25.57;36.98
6942;BME280;3510;43.200;27.920;2024-03-23T10:09:42;101336.91;;;25.65;37.04
6942;BME280;3510;43.200;27.920;2024-03-23T10:12:09;101332.69;;;25.67;37.29
6942;BME280;3510;43.200;27.920;2024-03-23T10:14:39;101323.03;;;25.62;37.01
6942;BME280;3510;43.200;27.920;2024-03-23T10:17:12;101316.13;;;25.61;36.93
6942;BME280;3510;43.200;27.920;2024-03-23T10:19:39;101318.69;;;25.59;37.22
6942;BME280;3510;43.200;27.920;2024-03-23T10:22:08;101308.38;;;25.59;37.12
6942;BME280;3510;43.200;27.920;2024-03-23T10:24:36;101304.75;;;25.54;37.58
6942;BME280;3510;43.200;27.920;2024-03-23T10:27:03;101304.06;;;25.59;37.15
6942;BME280;3510;43.200;27.920;2024-03-23T10:29:28;101297.25;;;25.62;37.66
6942;BME280;3510;43.200;27.920;2024-03-23T10:32:08;101293.94;;;25.66;37.50
6942;BME280;3510;43.200;27.920;2024-03-23T10:34:34;101286.06;;;25.61;37.27
6942;BME280;3510;43.200;27.920;2024-03-23T10:37:02;101289.75;;;25.69;37.41
6942;BME280;3510;43.200;27.920;2024-03-23T10:39:30;101285.22;;;25.62;37.73
6942;BME280;3510;43.200;27.920;2024-03-23T10:42:01;101286.16;;;25.64;37.34
6942;BME280;3510;43.200;27.920;2024-03-23T10:44:28;101286.25;;;25.67;37.86
6942;BME280;3510;43.200;27.920;2024-03-23T10:46:57;101279.41;;;25.68;37.37
6942;BME280;3510;43.200;27.920;2024-03-23T10:49:26;101280.47;;;25.74;37.83
6942;BME280;3510;43.200;27.920;2024-03-23T10:51:56;101280.25;;;25.68;37.97
6942;BME280;3510;43.200;27.920;2024-03-23T10:54:24;101272.63;;;25.71;37.53
6942;BME280;3510;43.200;27.920;2024-03-23T10:56:53;101275.97;;;25.69;37.85
6942;BME280;3510;43.200;27.920;2024-03-23T10:59:24;101272.44;;;25.65;37.80
6942;BME280;3510;43.200;27.920;2024-03-23T11:01:55;101273.41;;;25.69;38.28
6942;BME280;3510;43.200;27.920;2024-03-23T11:04:31;101264.59;;;25.62;37.84
6942;BME280;3510;43.200;27.920;2024-03-23T11:06:58;101267.38;;;25.68;37.88
6942;BME280;3510;43.200;27.920;2024-03-23T11:09:40;101258.91;;;25.72;37.91
6942;BME280;3510;43.200;27.920;2024-03-23T11:12:25;101262.28;;;25.70;37.87
6942;BME280;3510;43.200;27.920;2024-03-23T11:14:53;101257.13;;;25.70;38.23
6942;BME280;3510;43.200;27.920;2024-03-23T11:17:22;101251.06;;;25.69;38.50
6942;BME280;3510;43.200;27.920;2024-03-23T11:19:53;101246.06;;;25.74;38.22
6942;BME280;3510;43.200;27.920;2024-03-23T11:22:43;101247.22;;;25.83;38.15
6942;BME280;3510;43.200;27.920;2024-03-23T11:25:17;101240.84;;;25.72;38.18
6942;BME280;3510;43.200;27.920;2024-03-23T11:27:43;101234.22;;;25.80;38.37
6942;BME280;3510;43.200;27.920;2024-03-23T11:30:14;101236.53;;;25.71;38.38
6942;BME280;3510;43.200;27.920;2024-03-23T11:32:41;101224.47;;;25.70;38.28
6942;BME280;3510;43.200;27.920;2024-03-23T11:35:08;101229.63;;;25.70;38.54
6942;BME280;3510;43.200;27.920;2024-03-23T11:37:36;101225.38;;;25.72;38.59
6942;BME280;3510;43.200;27.920;2024-03-23T11:40:19;101228.75;;;25.70;38.50
6942;BME280;3510;43.200;27.920;2024-03-23T11:42:45;101227.13;;;25.73;38.81
6942;BME280;3510;43.200;27.920;2024-03-23T11:45:14;101223.53;;;25.68;38.95
6942;BME280;3510;43.200;27.920;2024-03-23T11:47:41;101223.66;;;25.73;38.75
6942;BME280;3510;43.200;27.920;2024-03-23T11:50:08;101215.16;;;25.75;38.63
6942;BME280;3510;43.200;27.920;2024-03-23T11:52:35;101208.03;;;25.67;38.77
6942;BME280;3510;43.200;27.920;2024-03-23T11:55:06;101200.34;;;25.68;39.20
6942;BME280;3510;43.200;27.920;2024-03-23T11:57:33;101196.84;;;25.66;38.96
6942;BME280;3510;43.200;27.920;2024-03-23T12:00:00;101201.09;;;25.66;38.82
6942;BME280;3510;43.200;27.920;2024-03-23T12:02:27;101190.03;;;25.68;38.87
6942;BME280;3510;43.200;27.920;2024-03-23T12:04:54;101193.53;;;25.70;39.22
6942;BME280;3510;43.200;27.920;2024-03-23T12:07:21;101190.03;;;25.68;39.25
6942;BME280;3510;43.200;27.920;2024-03-23T12:10:02;101187.31;;;25.64;39.13
6942;BME280;3510;43.200;27.920;2024-03-23T12:12:28;101185.69;;;25.67;39.39
6942;BME280;3510;43.200;27.920;2024-03-23T12:15:05;101170.22;;;25.67;39.43
6942;BME280;3510;43.200;27.920;2024-03-23T12:17:33;101165.97;;;25.69;39.51
6942;BME280;3510;43.200;27.920;2024-03-23T12:20:01;101167.81;;;25.73;39.62
6942;BME280;3510;43.200;27.920;2024-03-23T12:22:27;101164.31;;;25.71;39.66
6942;BME280;3510;43.200;27.920;2024-03-23T12:24:55;101155.66;;;25.69;39.70
6942;BME280;3510;43.200;27.920;2024-03-23T12:27:21;101149.59;;;25.67;39.45
6942;BME280;3510;43.200;27.920;2024-03-23T12:29:48;101155.75;;;25.72;39.27
6942;BME280;3510;43.200;27.920;2024-03-23T12:32:14;101153.91;;;25.68;39.98
6942;BME280;3510;43.200;27.920;2024-03-23T12:34:43;101143.78;;;25.74;39.62
6942;BME280;3510;43.200;27.920;2024-03-23T12:37:08;101147.91;;;25.69;39.62
6942;BME280;3510;43.200;27.920;2024-03-23T12:39:35;101139.22;;;25.66;39.66
6942;BME280;3510;43.200;27.920;2024-03-23T12:42:02;101138.50;;;25.70;39.74
6942;BME280;3510;43.200;27.920;2024-03-23T12:44:29;101145.31;;;25.68;39.89
6942;BME280;3510;43.200;27.920;2024-03-23T12:46:55;101145.28;;;25.66;39.96
6942;BME280;3510;43.200;27.920;2024-03-23T12:49:22;101143.59;;;25.68;40.05
6942;BME280;3510;43.200;27.920;2024-03-23T12:51:54;101135.94;;;25.70;40.00
6942;BME280;3510;43.200;27.920;2024-03-23T12:54:22;101132.41;;;25.68;39.91
6942;BME280;3510;43.200;27.920;2024-03-23T12:56:48;101128.22;;;25.71;40.03
6942;BME280;3510;43.200;27.920;2024-03-23T12:59:15;101124.72;;;25.69;40.26
6942;BME280;3510;43.200;27.920;2024-03-23T13:01:42;101120.41;;;25.68;40.37
6942;BME280;3510;43.200;27.920;2024-03-23T13:04:09;101129.81;;;25.66;39.91
6942;BME280;3510;43.200;27.920;2024-03-23T13:06:35;101117.91;;;25.71;40.00
6942;BME280;3510;43.200;27.920;2024-03-23T13:09:03;101116.09;;;25.67;40.19
6942;BME280;3510;43.200;27.920;2024-03-23T13:11:29;101105.91;;;25.73;39.78
6942;BME280;3510;43.200;27.920;2024-03-23T13:13:56;101121.19;;;25.66;40.48
6942;BME280;3510;43.200;27.920;2024-03-23T13:16:22;101113.38;;;25.63;40.50
6942;BME280;3510;43.200;27.920;2024-03-23T13:18:49;101104.81;;;25.64;40.48
6942;BME280;3510;43.200;27.920;2024-03-23T13:21:15;101095.59;;;25.73;40.51
6942;BME280;3510;43.200;27.920;2024-03-23T13:23:42;101094.78;;;25.74;40.45
6942;BME280;3510;43.200;27.920;2024-03-23T13:26:12;101092.44;;;25.82;40.23
6942;BME280;3510;43.200;27.920;2024-03-23T13:28:39;101083.84;;;25.81;40.03
6942;BME280;3510;43.200;27.920;2024-03-23T13:31:05;101086.44;;;25.81;40.27
6942;BME280;3510;43.200;27.920;2024-03-23T13:33:32;101092.47;;;25.83;40.09
6942;BME280;3510;43.200;27.920;2024-03-23T13:35:58;101087.41;;;25.87;40.15
6942;BME280;3510;43.200;27.920;2024-03-23T13:38:25;101074.41;;;25.83;40.44
6942;BME280;3510;43.200;27.920;2024-03-23T13:40:52;101080.41;;;25.82;40.19
6942;BME280;3510;43.200;27.920;2024-03-23T13:43:20;101075.34;;;25.86;40.55
6942;BME280;3510;43.200;27.920;2024-03-23T13:45:47;101076.09;;;25.81;40.58
6942;BME280;3510;43.200;27.920;2024-03-23T13:48:15;101073.31;;;25.75;40.31
6942;BME280;3510;43.200;27.920;2024-03-23T13:50:41;101077.69;;;25.78;40.80
6942;BME280;3510;43.200;27.920;2024-03-23T13:53:08;101068.19;;;25.77;40.78
6942;BME280;3510;43.200;27.920;2024-03-23T13:55:34;101069.03;;;25.76;40.61